createdAt,value
2023-02-03T00:00:17.276Z,101285.63
2023-02-03T00:02:45.719Z,101282.84
2023-02-03T00:05:14.376Z,101277.72
2023-02-03T00:07:44.497Z,101267.09
2023-02-03T00:10:14.474Z,101259.38
2023-02-03T00:12:43.228Z,101247.31
2023-02-03T00:15:11.911Z,101234.38
2023-02-03T00:17:40.026Z,101235.44
2023-02-03T00:20:09.347Z,101223.56
2023-02-03T00:22:37.765Z,101221.59
2023-02-03T00:25:06.878Z,101218.34
2023-02-03T00:27:36.764Z,101219.25
2023-02-03T00:30:06.203Z,101197.72
2023-02-03T00:32:34.332Z,101190.47
2023-02-03T00:35:02.641Z,101192.13
2023-02-03T00:37:30.701Z,101193.72
2023-02-03T00:39:59.043Z,101188.63
2023-02-03T00:42:30.072Z,101164.44
2023-02-03T00:44:59.758Z,101159.25
2023-02-03T00:47:28.040Z,101153.78
2023-02-03T00:49:56.491Z,101145.31
2023-02-03T00:52:24.657Z,101129.78
2023-02-03T00:54:52.902Z,101126.53
2023-02-03T00:57:21.431Z,101127.16
2023-02-03T00:59:49.988Z,101124.50
2023-02-03T01:02:19.942Z,101108.88
2023-02-03T01:04:48.203Z,101107.41
2023-02-03T01:07:16.674Z,101088.28
2023-02-03T01:09:44.806Z,101072.91
2023-02-03T01:12:13.053Z,101062.25
2023-02-03T01:14:41.153Z,101056.19
2023-02-03T01:17:09.968Z,101055.56
2023-02-03T01:19:39.585Z,101031.28
2023-02-03T01:22:07.986Z,101031.06
2023-02-03T01:24:36.209Z,101005.03
2023-02-03T01:27:04.380Z,100996.22
2023-02-03T01:29:34.189Z,100985.53
2023-02-03T01:32:03.538Z,100980.59
2023-02-03T01:34:31.977Z,100968.41
2023-02-03T01:37:01.758Z,100961.53
2023-02-03T01:39:30.118Z,100957.22
2023-02-03T01:41:58.326Z,100937.06
2023-02-03T01:44:44.769Z,100929.38
2023-02-03T01:47:18.526Z,100912.19
2023-02-03T01:49:51.316Z,100898.28
2023-02-03T01:52:21.038Z,100894.63
2023-02-03T01:54:51.507Z,100879.88
2023-02-03T01:57:24.437Z,100857.34
2023-02-03T01:59:55.241Z,100853.88
2023-02-03T02:02:24.623Z,100847.88
2023-02-03T02:04:58.194Z,100838.03
2023-02-03T02:07:28.120Z,100823.44
2023-02-03T02:09:56.777Z,100808.53
2023-02-03T02:12:25.306Z,100795.50
2023-02-03T02:14:53.406Z,100780.69
2023-02-03T02:17:38.051Z,100775.63
2023-02-03T02:20:46.761Z,100759.09
2023-02-03T02:23:52.744Z,100758.41
2023-02-03T02:26:49.603Z,100756.59
2023-02-03T02:30:02.085Z,100743.63
2023-02-03T02:32:43.364Z,100732.59
2023-02-03T02:35:21.853Z,100722.28
2023-02-03T02:37:54.495Z,100710.13
2023-02-03T02:40:31.966Z,100700.53
2023-02-03T02:43:09.087Z,100687.34
2023-02-03T02:45:46.470Z,100677.97
2023-02-03T02:48:23.746Z,100661.34
2023-02-03T02:50:55.451Z,100663.31
2023-02-03T02:53:27.462Z,100645.91
2023-02-03T02:55:58.045Z,100640.88
2023-02-03T02:58:28.183Z,100597.09
2023-02-03T03:00:57.556Z,100621.72
2023-02-03T03:03:27.416Z,100611.41
2023-02-03T03:05:58.957Z,100590.75
2023-02-03T03:08:32.904Z,100577.72
2023-02-03T03:11:03.151Z,100573.09
2023-02-03T03:13:38.457Z,100554.09
2023-02-03T03:16:09.773Z,100538.44
2023-02-03T03:18:44.832Z,100531.63
2023-02-03T03:21:17.352Z,100516.84
2023-02-03T03:23:49.610Z,100504.88
2023-02-03T03:26:23.710Z,100481.31
2023-02-03T03:28:56.470Z,100470.81
2023-02-03T03:31:25.075Z,100472.78
2023-02-03T03:33:54.751Z,100464.94
2023-02-03T03:36:29.337Z,100444.97
2023-02-03T03:39:05.161Z,100393.97
2023-02-03T03:41:42.790Z,100420.44
2023-02-03T03:44:15.609Z,100410.88
2023-02-03T03:46:50.435Z,100387.34
2023-02-03T03:49:22.512Z,100388.28
2023-02-03T03:51:55.734Z,100378.69
2023-02-03T03:54:26.784Z,100377.13
2023-02-03T03:57:02.020Z,100372.88
2023-02-03T03:59:33.599Z,100358.91
2023-02-03T04:02:05.188Z,100357.13
2023-02-03T04:04:37.925Z,100335.31
2023-02-03T04:07:06.272Z,100333.59
2023-02-03T04:09:36.750Z,100312.84
2023-02-03T04:12:06.332Z,100298.78
2023-02-03T04:14:38.113Z,100295.53
2023-02-03T04:17:06.463Z,100273.72
2023-02-03T04:19:36.159Z,100270.38
2023-02-03T04:22:04.449Z,100260.78
2023-02-03T04:24:32.651Z,100250.44
2023-02-03T04:27:01.100Z,100231.38
2023-02-03T04:29:29.537Z,100211.25
2023-02-03T04:31:57.974Z,100215.69
2023-02-03T04:34:26.448Z,100208.78
2023-02-03T04:36:55.955Z,100188.91
2023-02-03T04:39:24.390Z,100165.34
2023-02-03T04:41:52.953Z,100174.03
2023-02-03T04:44:21.156Z,100165.44
2023-02-03T04:46:49.279Z,100151.44
2023-02-03T04:49:17.743Z,100129.59
2023-02-03T04:51:46.093Z,100128.75
2023-02-03T04:54:15.646Z,100127.22
2023-02-03T04:56:44.861Z,100114.13
2023-02-03T04:59:13.164Z,100118.47
2023-02-03T05:01:41.493Z,100101.06
2023-02-03T05:04:09.867Z,100092.44
2023-02-03T05:06:38.218Z,100089.06
2023-02-03T05:09:06.644Z,100093.38
2023-02-03T05:11:36.849Z,100075.19
2023-02-03T05:14:05.583Z,100070.81
2023-02-03T05:16:34.122Z,100064.72
2023-02-03T05:19:02.595Z,100049.00
2023-02-03T05:21:30.731Z,100039.34
2023-02-03T05:24:00.342Z,100024.72
2023-02-03T05:26:28.816Z,100019.59
2023-02-03T05:28:58.364Z,100011.06
2023-02-03T05:31:26.603Z,99993.50
2023-02-03T05:33:54.929Z,99992.66
2023-02-03T05:36:23.221Z,99986.69
2023-02-03T05:38:51.398Z,99969.38
2023-02-03T05:41:37.025Z,99963.19
2023-02-03T05:44:06.929Z,99963.09
2023-02-03T05:46:35.226Z,99930.88
2023-02-03T05:49:03.594Z,99924.94
2023-02-03T05:51:31.678Z,99915.47
2023-02-03T05:53:59.977Z,99899.09
2023-02-03T05:56:28.389Z,99887.00
2023-02-03T05:58:56.734Z,99888.75
2023-02-03T06:01:26.996Z,99867.91
2023-02-03T06:03:55.466Z,99867.72
2023-02-03T06:06:23.824Z,99866.06
2023-02-03T06:08:56.596Z,99869.56
2023-02-03T06:11:25.576Z,99852.31
2023-02-03T06:13:53.965Z,99853.19
2023-02-03T06:16:22.426Z,99842.88
2023-02-03T06:18:52.458Z,99832.50
2023-02-03T06:21:21.504Z,99834.22
2023-02-03T06:23:50.458Z,99825.53
2023-02-03T06:26:18.777Z,99820.38
2023-02-03T06:28:47.073Z,99818.69
2023-02-03T06:31:15.519Z,99782.03
2023-02-03T06:33:43.946Z,99797.84
2023-02-03T06:36:15.319Z,99790.97
2023-02-03T06:38:43.714Z,99761.44
2023-02-03T06:41:11.922Z,99776.22
2023-02-03T06:43:40.452Z,99784.00
2023-02-03T06:46:08.689Z,99760.53
2023-02-03T06:48:37.061Z,99756.22
2023-02-03T06:51:05.789Z,99752.75
2023-02-03T06:53:35.476Z,99743.28
2023-02-03T06:56:03.642Z,99738.94
2023-02-03T06:58:31.760Z,99733.69
2023-02-03T07:01:00.309Z,99736.25
2023-02-03T07:03:28.607Z,99733.72
2023-02-03T07:05:57.011Z,99744.16
2023-02-03T07:08:25.328Z,99751.03
2023-02-03T07:10:56.585Z,99737.22
2023-02-03T07:13:24.743Z,99745.88
2023-02-03T07:15:53.060Z,99748.53
2023-02-03T07:18:47.393Z,99756.31
2023-02-03T07:21:14.102Z,99754.56
2023-02-03T07:23:42.733Z,99760.66
2023-02-03T07:26:13.055Z,99756.38
2023-02-03T07:28:41.568Z,99754.56
2023-02-03T07:31:10.707Z,99763.25
2023-02-03T07:33:39.699Z,99730.25
2023-02-03T07:36:09.352Z,99754.47
2023-02-03T07:38:39.067Z,99758.84
2023-02-03T07:41:07.919Z,99740.53
2023-02-03T07:43:38.117Z,99749.25
2023-02-03T07:46:06.469Z,99756.34
2023-02-03T07:48:34.729Z,99749.47
2023-02-03T07:51:03.391Z,99756.47
2023-02-03T07:53:32.039Z,99766.78
2023-02-03T07:56:02.030Z,99762.47
2023-02-03T07:58:31.190Z,99772.00
2023-02-03T08:01:01.439Z,99761.56
2023-02-03T08:03:29.625Z,99765.81
2023-02-03T08:05:58.140Z,99780.63
2023-02-03T08:08:26.700Z,99777.13
2023-02-03T08:10:57.751Z,99780.66
2023-02-03T08:13:26.065Z,99779.69
2023-02-03T08:15:54.543Z,99792.75
2023-02-03T08:18:24.274Z,99789.25
2023-02-03T08:20:52.812Z,99790.94
2023-02-03T08:23:21.145Z,99798.81
2023-02-03T08:25:52.920Z,99805.88
2023-02-03T08:28:21.440Z,99818.03
2023-02-03T08:30:49.747Z,99817.16
2023-02-03T08:33:18.195Z,99820.63
2023-02-03T08:35:50.112Z,99836.19
2023-02-03T08:38:18.741Z,99810.06
2023-02-03T08:40:49.555Z,99853.59
2023-02-03T08:43:18.023Z,99851.69
2023-02-03T08:45:46.554Z,99862.22
2023-02-03T08:48:14.941Z,99872.63
2023-02-03T08:50:44.695Z,99872.72
2023-02-03T08:53:14.337Z,99885.78
2023-02-03T08:55:42.376Z,99889.91
2023-02-03T08:58:10.673Z,99900.25
2023-02-03T09:00:42.923Z,99909.03
2023-02-03T09:03:11.139Z,99915.03
2023-02-03T09:05:39.358Z,99933.28
2023-02-03T09:08:07.994Z,99933.38
2023-02-03T09:10:37.921Z,99947.28
2023-02-03T09:13:06.259Z,99947.19
2023-02-03T09:15:34.906Z,99969.69
2023-02-03T09:18:03.249Z,99966.28
2023-02-03T09:20:32.070Z,99971.47
2023-02-03T09:23:01.007Z,99988.84
2023-02-03T09:25:29.700Z,99995.81
2023-02-03T09:27:59.941Z,100008.03
2023-02-03T09:30:29.774Z,100020.81
2023-02-03T09:32:59.104Z,100028.66
2023-02-03T09:35:29.702Z,100035.63
2023-02-03T09:38:00.900Z,100044.34
2023-02-03T09:40:34.569Z,100060.00
2023-02-03T09:43:18.126Z,100044.22
2023-02-03T09:45:46.744Z,100062.56
2023-02-03T09:48:20.764Z,100072.13
2023-02-03T09:50:52.120Z,100089.66
2023-02-03T09:53:30.154Z,100113.81
2023-02-03T09:55:59.519Z,100120.03
2023-02-03T09:58:34.440Z,100132.94
2023-02-03T10:01:07.317Z,100146.13
2023-02-03T10:03:41.328Z,100165.22
2023-02-03T10:06:18.130Z,100176.28
2023-02-03T10:09:17.544Z,100192.03
2023-02-03T10:12:15.647Z,100199.81
2023-02-03T10:14:58.019Z,100207.72
2023-02-03T10:17:32.233Z,100210.38
2023-02-03T10:20:06.101Z,100216.47
2023-02-03T10:22:39.440Z,100225.06
2023-02-03T10:25:20.777Z,100240.63
2023-02-03T10:27:50.616Z,100249.25
2023-02-03T10:30:22.875Z,100245.78
2023-02-03T10:32:53.422Z,100251.09
2023-02-03T10:35:23.149Z,100262.31
2023-02-03T10:37:55.647Z,100254.53
2023-02-03T10:40:29.367Z,100248.38
2023-02-03T10:43:15.186Z,100244.94
2023-02-03T10:45:44.959Z,100267.63
2023-02-03T10:48:17.962Z,100254.56
2023-02-03T10:50:50.352Z,100286.09
2023-02-03T10:53:24.611Z,100283.25
2023-02-03T10:56:02.488Z,100323.53
2023-02-03T10:58:33.488Z,100336.44
2023-02-03T11:01:12.068Z,100355.59
2023-02-03T11:03:43.765Z,100359.25
2023-02-03T11:06:14.410Z,100351.50
2023-02-03T11:08:45.806Z,100353.13
2023-02-03T11:11:16.665Z,100376.66
2023-02-03T11:13:45.028Z,100366.13
2023-02-03T11:16:17.621Z,100392.41
2023-02-03T11:18:52.810Z,100392.22
2023-02-03T11:21:24.034Z,100390.53
2023-02-03T11:23:56.655Z,100409.69
2023-02-03T11:26:28.745Z,100433.19
2023-02-03T11:29:00.842Z,100456.56
2023-02-03T11:31:33.866Z,100449.66
2023-02-03T11:34:04.741Z,100477.25
2023-02-03T11:36:35.270Z,100498.13
2023-02-03T11:39:35.822Z,100515.44
2023-02-03T11:42:18.637Z,100517.41
2023-02-03T11:44:46.756Z,100534.78
2023-02-03T11:47:18.530Z,100536.56
2023-02-03T11:50:27.302Z,100547.78
2023-02-03T11:53:13.708Z,100551.34
2023-02-03T11:55:54.258Z,100569.66
2023-02-03T11:58:54.654Z,100571.38
2023-02-03T12:01:37.657Z,100572.19
2023-02-03T12:04:43.191Z,100581.72
2023-02-03T12:07:33.759Z,100592.22
2023-02-03T12:10:10.760Z,100599.34
2023-02-03T12:12:52.649Z,100614.91
2023-02-03T12:15:58.212Z,100625.44
2023-02-03T12:18:38.045Z,100641.28
2023-02-03T12:21:27.973Z,100662.09
2023-02-03T12:24:04.397Z,100679.47
2023-02-03T12:26:39.223Z,100681.16
2023-02-03T12:29:13.135Z,100698.50
2023-02-03T12:31:45.827Z,100703.94
2023-02-03T12:34:22.755Z,100702.19
2023-02-03T12:36:58.729Z,100723.88
2023-02-03T12:39:33.050Z,100740.25
2023-02-03T12:42:05.882Z,100740.38
2023-02-03T12:44:42.030Z,100741.22
2023-02-03T12:47:18.809Z,100756.06
2023-02-03T12:49:52.868Z,100765.78
2023-02-03T12:52:28.008Z,100760.66
2023-02-03T12:55:07.777Z,100776.28
2023-02-03T12:57:42.403Z,100791.19
2023-02-03T13:00:30.998Z,100805.13
2023-02-03T13:03:09.135Z,100814.00
2023-02-03T13:05:45.060Z,100815.84
2023-02-03T13:08:25.157Z,100813.75
2023-02-03T13:10:59.694Z,100810.03
2023-02-03T13:13:41.185Z,100827.31
2023-02-03T13:16:12.930Z,100844.56
2023-02-03T13:18:45.555Z,100842.63
2023-02-03T13:21:14.302Z,100848.09
2023-02-03T13:23:47.636Z,100853.63
2023-02-03T13:26:44.440Z,100863.78
2023-02-03T13:29:34.884Z,100864.78
2023-02-03T13:32:18.352Z,100870.47
2023-02-03T13:35:01.340Z,100881.13
2023-02-03T13:37:59.567Z,100907.25
2023-02-03T13:40:42.614Z,100936.84
2023-02-03T13:43:22.972Z,100934.94
2023-02-03T13:46:01.005Z,100961.28
2023-02-03T13:48:32.741Z,100980.94
2023-02-03T13:51:08.473Z,100977.59
2023-02-03T13:53:40.436Z,100987.28
2023-02-03T13:56:19.136Z,100994.25
2023-02-03T13:59:01.471Z,101002.78
2023-02-03T14:01:34.545Z,101020.66
2023-02-03T14:04:04.773Z,101026.66
2023-02-03T14:07:01.438Z,101037.94
2023-02-03T14:09:43.486Z,101041.25
2023-02-03T14:12:22.015Z,101048.09
2023-02-03T14:15:05.169Z,101058.22
2023-02-03T14:18:02.407Z,101074.72
2023-02-03T14:21:11.906Z,101088.91
2023-02-03T14:23:50.738Z,101096.69
2023-02-03T14:26:38.728Z,101104.53
2023-02-03T14:29:10.129Z,101124.69
2023-02-03T14:32:00.001Z,101136.72
2023-02-03T14:34:34.273Z,101150.84
2023-02-03T14:37:21.697Z,101168.09
2023-02-03T14:40:17.639Z,101176.06
2023-02-03T14:43:27.391Z,101185.25
2023-02-03T14:46:29.768Z,101196.97
2023-02-03T14:49:29.834Z,101209.16
2023-02-03T14:52:23.911Z,101231.84
2023-02-03T14:55:09.957Z,101245.56
2023-02-03T14:57:44.873Z,101263.22
2023-02-03T15:00:30.213Z,101251.31
2023-02-03T15:03:35.074Z,101273.41
2023-02-03T15:06:05.670Z,101295.28
2023-02-03T15:08:37.286Z,101304.16
2023-02-03T15:11:25.386Z,101313.41
2023-02-03T15:13:54.223Z,101321.25
2023-02-03T15:16:24.627Z,101345.59
2023-02-03T15:19:00.098Z,101343.16
2023-02-03T15:21:28.674Z,101343.53
2023-02-03T15:23:56.843Z,101351.97
2023-02-03T15:26:26.899Z,101361.56
2023-02-03T15:28:58.462Z,101394.19
2023-02-03T15:31:38.561Z,101402.56
2023-02-03T15:34:19.553Z,101416.34
2023-02-03T15:36:51.090Z,101426.94
2023-02-03T15:39:27.620Z,101453.59
2023-02-03T15:41:58.131Z,101473.66
2023-02-03T15:44:32.287Z,101459.63
2023-02-03T15:47:05.456Z,101488.94
2023-02-03T15:49:41.798Z,101502.28
2023-02-03T15:52:15.948Z,101500.31
2023-02-03T15:54:53.471Z,101491.88
2023-02-03T15:57:25.197Z,101539.78
2023-02-03T15:59:57.151Z,101546.75
2023-02-03T16:02:31.624Z,101543.28
2023-02-03T16:05:05.734Z,101569.31
2023-02-03T16:07:34.197Z,101564.88
2023-02-03T16:10:02.562Z,101579.41
2023-02-03T16:12:32.410Z,101590.25
2023-02-03T16:15:03.529Z,101593.47
2023-02-03T16:17:34.353Z,101609.88
2023-02-03T16:20:23.455Z,101633.13
2023-02-03T16:23:04.179Z,101632.47
2023-02-03T16:25:34.211Z,101636.47
2023-02-03T16:28:21.500Z,101650.41
2023-02-03T16:31:16.137Z,101648.03
2023-02-03T16:34:04.732Z,101663.66
2023-02-03T16:36:51.610Z,101661.28
2023-02-03T16:39:37.485Z,101678.44
2023-02-03T16:42:32.996Z,101692.09
2023-02-03T16:45:18.514Z,101698.00
2023-02-03T16:48:05.410Z,101701.47
2023-02-03T16:50:58.206Z,101714.94
2023-02-03T16:53:31.356Z,101725.34
2023-02-03T16:56:01.812Z,101728.38
2023-02-03T16:58:29.977Z,101736.19
2023-02-03T17:01:01.433Z,101740.59
2023-02-03T17:03:30.368Z,101742.47
2023-02-03T17:05:58.957Z,101754.94
2023-02-03T17:08:28.875Z,101767.09
2023-02-03T17:10:59.798Z,101776.38
2023-02-03T17:13:28.220Z,101779.00
2023-02-03T17:15:56.449Z,101783.97
2023-02-03T17:18:24.589Z,101803.00
2023-02-03T17:20:53.491Z,101799.31
2023-02-03T17:23:22.029Z,101812.88
2023-02-03T17:25:51.997Z,101825.44
2023-02-03T17:28:20.556Z,101837.75
2023-02-03T17:30:57.842Z,101864.47
2023-02-03T17:33:26.609Z,101872.13
2023-02-03T17:36:02.963Z,101875.53
2023-02-03T17:38:31.265Z,101884.31
2023-02-03T17:54:51.252Z,101946.19
2023-02-03T17:57:20.903Z,101965.88
2023-02-03T17:59:48.952Z,101962.88
2023-02-03T18:02:17.427Z,101960.13
2023-02-03T18:04:45.480Z,101977.94
2023-02-03T18:07:13.562Z,101987.63
2023-02-03T18:09:41.922Z,101997.84
2023-02-03T18:12:09.950Z,102002.16
2023-02-03T18:14:39.791Z,102011.44
2023-02-03T18:17:08.490Z,102022.41
2023-02-03T18:19:36.731Z,102030.19
2023-02-03T18:22:04.885Z,102033.19
2023-02-03T18:24:33.795Z,102042.09
2023-02-03T18:27:03.643Z,102048.34
2023-02-03T18:29:31.657Z,102061.25
2023-02-03T18:32:01.448Z,102066.75
2023-02-03T18:34:29.540Z,102078.66
2023-02-03T18:36:57.687Z,102082.75
2023-02-03T18:39:25.921Z,102095.69
2023-02-03T18:41:54.042Z,102106.72
2023-02-03T18:44:22.398Z,102116.97
2023-02-03T18:46:53.551Z,102122.34
2023-02-03T18:49:23.295Z,102132.31
2023-02-03T18:51:51.545Z,102124.91
2023-02-03T18:54:19.693Z,102144.06
2023-02-03T18:56:48.248Z,102155.94
2023-02-03T18:59:17.147Z,102173.47
2023-02-03T19:01:46.669Z,102177.59
2023-02-03T19:04:15.587Z,102187.53
2023-02-03T19:06:45.842Z,102193.84
2023-02-03T19:09:17.256Z,102199.34
2023-02-03T19:11:47.627Z,102207.94
2023-02-03T19:14:19.566Z,102229.19
2023-02-03T19:16:50.453Z,102246.44
2023-02-03T19:19:18.842Z,102257.25
2023-02-03T19:21:49.537Z,102262.81
2023-02-03T19:24:18.990Z,102271.56
2023-02-03T19:26:47.891Z,102279.38
2023-02-03T19:29:16.917Z,102270.44
2023-02-03T19:31:45.497Z,102285.34
2023-02-03T19:34:15.999Z,102300.44
2023-02-03T19:36:46.417Z,102310.56
2023-02-03T19:39:16.749Z,102320.88
2023-02-03T19:41:48.188Z,102322.75
2023-02-03T19:44:16.887Z,102341.59
2023-02-03T19:46:45.411Z,102347.78
2023-02-03T19:49:15.537Z,102365.16
2023-02-03T19:51:47.810Z,102354.09
2023-02-03T19:54:18.545Z,102355.72
2023-02-03T19:56:46.889Z,102377.16
2023-02-03T19:59:15.225Z,102386.72
2023-02-03T20:01:43.778Z,102402.00
2023-02-03T20:04:12.312Z,102397.09
2023-02-03T20:06:40.764Z,102397.09
2023-02-03T20:09:08.984Z,102413.75
2023-02-03T20:11:38.839Z,102414.66
2023-02-03T20:14:07.106Z,102425.06
2023-02-03T20:16:35.504Z,102424.09
2023-02-03T20:19:04.267Z,102431.16
2023-02-03T20:21:32.326Z,102441.59
2023-02-03T20:26:54.573Z,102453.81
2023-02-03T20:29:22.830Z,102466.72
2023-02-03T20:31:53.087Z,102469.75
2023-02-03T20:34:22.388Z,102472.97
2023-02-03T20:36:50.769Z,102472.63
2023-02-03T20:39:21.566Z,102488.00
2023-02-03T20:41:50.123Z,102491.38
2023-02-03T20:44:20.208Z,102494.44
2023-02-03T20:46:49.163Z,102504.31
2023-02-03T20:49:19.815Z,102512.13
2023-02-03T20:51:48.226Z,102521.69
2023-02-03T20:54:19.397Z,102528.84
2023-02-03T20:56:47.645Z,102532.97
2023-02-03T20:59:20.552Z,102545.34
2023-02-03T21:01:50.940Z,102553.13
2023-02-03T21:04:37.873Z,102565.75
2023-02-03T21:07:14.867Z,102568.22
2023-02-03T21:09:43.403Z,102584.53
2023-02-03T21:12:13.320Z,102589.84
2023-02-03T21:14:45.629Z,102601.66
2023-02-03T21:17:19.399Z,102609.00
2023-02-03T21:19:48.175Z,102614.56
2023-02-03T21:22:23.213Z,102618.63
2023-02-03T21:24:54.385Z,102628.53
2023-02-03T21:27:28.732Z,102623.69
2023-02-03T21:29:59.867Z,102652.50
2023-02-03T21:32:37.542Z,102640.34
2023-02-03T21:35:24.125Z,102655.69
2023-02-03T21:37:55.891Z,102652.31
2023-02-03T21:40:29.525Z,102657.50
2023-02-03T21:42:58.961Z,102663.00
2023-02-03T21:45:35.752Z,102675.91
2023-02-03T21:48:25.253Z,102681.28
2023-02-03T21:50:54.907Z,102689.41
2023-02-03T21:53:29.646Z,102692.63
2023-02-03T21:55:58.000Z,102691.66
2023-02-03T21:58:29.076Z,102695.41
2023-02-03T22:01:00.123Z,102713.31
2023-02-03T22:03:30.112Z,102707.75
2023-02-03T22:06:14.456Z,102717.84
2023-02-03T22:08:44.872Z,102725.41
2023-02-03T22:11:13.559Z,102739.78
2023-02-03T22:13:42.221Z,102751.56
2023-02-03T22:16:13.884Z,102757.81
2023-02-03T22:18:42.493Z,102761.22
2023-02-03T22:21:10.841Z,102760.72
2023-02-03T22:23:39.313Z,102760.91
2023-02-03T22:26:08.735Z,102771.00
2023-02-03T22:28:40.701Z,102784.09
2023-02-03T22:31:11.503Z,102786.69
2023-02-03T22:33:42.076Z,102798.94
2023-02-03T22:36:11.842Z,102795.28
2023-02-03T22:38:41.755Z,102809.41
2023-02-03T22:41:12.234Z,102818.81
2023-02-03T22:43:41.126Z,102825.19
2023-02-03T22:46:09.955Z,102836.19
2023-02-03T22:48:38.433Z,102831.69
2023-02-03T22:51:08.318Z,102843.84
2023-02-03T22:53:36.711Z,102845.16
2023-02-03T22:56:05.322Z,102861.81
2023-02-03T22:58:33.514Z,102862.50
2023-02-03T23:01:01.827Z,102865.81
2023-02-03T23:03:32.812Z,102878.06
2023-02-03T23:06:01.446Z,102895.81
2023-02-03T23:08:31.156Z,102885.00
2023-02-03T23:10:59.657Z,102904.19
2023-02-03T23:13:28.430Z,102901.97
2023-02-03T23:15:56.806Z,102913.44
2023-02-03T23:18:25.119Z,102929.28
2023-02-03T23:20:53.169Z,102940.41
2023-02-03T23:23:21.462Z,102930.94
2023-02-03T23:25:51.266Z,102915.66
2023-02-03T23:28:19.600Z,102961.06
2023-02-03T23:30:48.248Z,102966.13
2023-02-03T23:33:19.649Z,102960.75
2023-02-03T23:35:46.925Z,102969.09
2023-02-03T23:38:16.406Z,102969.09
2023-02-03T23:40:46.284Z,102978.53
2023-02-03T23:43:16.334Z,102999.50
2023-02-03T23:45:44.610Z,102993.84
2023-02-03T23:48:13.445Z,103008.03
2023-02-03T23:50:42.108Z,103012.25
2023-02-03T23:53:10.888Z,103024.00
2023-02-03T23:55:39.190Z,103025.44
2023-02-03T23:58:07.516Z,103037.25
